Time;durP1;ratioP1;P1;durP2;ratioP2;P2;SDS_P1;SDS_P2;PMS_P1;PMS_P2;Temp;Humidity;BMP_temperature;BMP_pressure;BME280_temperature;BME280_humidity;BME280_pressure;Samples;Min_cycle;Max_cycle;Signal;HPM_P1;HPM_P2
2024/02/22 00:01:44;;;;;;;3.05;1.77;;;9.70;99.90;;;;;;4965265;28;20126;-81
2024/02/22 00:04:12;;;;;;;3.50;2.40;;;9.70;99.90;;;;;;4979592;28;20077;-81
2024/02/22 00:06:39;;;;;;;4.57;3.17;;;9.70;99.90;;;;;;4973934;28;20041;-82
2024/02/22 00:09:07;;;;;;;3.30;2.20;;;9.80;99.90;;;;;;4942730;28;20118;-82
2024/02/22 00:11:35;;;;;;;3.50;2.33;;;9.70;99.90;;;;;;4955028;28;20038;-82
2024/02/22 00:14:02;;;;;;;3.60;2.58;;;9.70;99.90;;;;;;4944694;28;20061;-81
2024/02/22 00:16:29;;;;;;;3.60;2.58;;;9.80;99.90;;;;;;4945045;28;20046;-82
2024/02/22 00:18:56;;;;;;;3.47;2.38;;;9.80;99.90;;;;;;4945301;29;20149;-82
2024/02/22 00:21:23;;;;;;;4.28;2.83;;;9.80;99.90;;;;;;4954736;28;20133;-81
2024/02/22 00:23:51;;;;;;;4.28;2.97;;;9.80;99.90;;;;;;4959526;28;20045;-81
2024/02/22 00:26:18;;;;;;;3.25;2.45;;;9.80;99.90;;;;;;4939482;28;20447;-81
2024/02/22 00:28:45;;;;;;;3.35;1.90;;;9.80;99.90;;;;;;4926191;28;20054;-82
2024/02/22 00:31:12;;;;;;;3.65;2.83;;;9.80;99.90;;;;;;4935175;28;20042;-81
2024/02/22 00:33:44;;;;;;;5.18;4.00;;;9.80;99.90;;;;;;4972437;28;20057;-81
2024/02/22 00:36:11;;;;;;;4.35;2.88;;;9.90;99.90;;;;;;4925450;29;20488;-81
2024/02/22 00:38:39;;;;;;;3.72;2.50;;;9.90;99.90;;;;;;4939697;29;20055;-81
2024/02/22 00:41:06;;;;;;;4.05;2.72;;;9.90;99.90;;;;;;4968085;28;20050;-81
2024/02/22 00:43:33;;;;;;;4.80;2.95;;;9.90;99.90;;;;;;4979245;28;20039;-80
2024/02/22 00:46:01;;;;;;;4.88;3.30;;;9.90;99.90;;;;;;4931697;29;20054;-81
2024/02/22 00:48:28;;;;;;;3.95;2.97;;;9.90;99.90;;;;;;4958452;28;20042;-81
2024/02/22 00:50:55;;;;;;;4.22;3.15;;;9.90;99.90;;;;;;4958010;28;20050;-81
2024/02/22 00:53:23;;;;;;;4.07;2.83;;;9.90;99.90;;;;;;4944090;28;20078;-80
2024/02/22 00:55:49;;;;;;;4.13;2.92;;;9.90;99.90;;;;;;4926891;28;20109;-80
2024/02/22 00:58:17;;;;;;;3.95;2.75;;;10.00;99.90;;;;;;4934537;28;20055;-80
2024/02/22 01:00:44;;;;;;;3.05;2.10;;;9.90;99.90;;;;;;4952813;29;20047;-80
2024/02/22 01:03:11;;;;;;;4.57;2.72;;;10.00;99.90;;;;;;4960440;28;20494;-80
2024/02/22 01:05:38;;;;;;;3.80;2.40;;;10.00;99.90;;;;;;4952220;28;20537;-80
2024/02/22 01:08:05;;;;;;;3.90;2.88;;;10.00;99.90;;;;;;4975381;28;20115;-80
2024/02/22 01:10:33;;;;;;;3.85;2.78;;;10.00;99.90;;;;;;4954485;28;20098;-80
2024/02/22 01:13:00;;;;;;;4.95;3.70;;;10.00;99.90;;;;;;4955128;28;20050;-80
2024/02/22 01:15:28;;;;;;;4.57;3.13;;;10.00;99.90;;;;;;4989160;28;20073;-80
2024/02/22 01:17:55;;;;;;;4.70;3.35;;;10.10;99.90;;;;;;4948963;28;20090;-80
2024/02/22 01:20:22;;;;;;;4.43;3.10;;;10.00;99.90;;;;;;4945083;28;20413;-81
2024/02/22 01:22:49;;;;;;;4.88;3.33;;;10.10;99.90;;;;;;4924029;28;20104;-80
2024/02/22 01:25:17;;;;;;;4.95;3.67;;;10.10;99.90;;;;;;4930309;28;20042;-81
2024/02/22 01:27:43;;;;;;;5.75;4.57;;;10.10;99.90;;;;;;4932005;29;20040;-81
2024/02/22 01:30:10;;;;;;;6.10;4.22;;;10.10;99.90;;;;;;4926357;28;20038;-82
2024/02/22 01:32:39;;;;;;;4.45;2.95;;;10.10;99.90;;;;;;4944786;29;20503;-82
2024/02/22 01:35:08;;;;;;;3.47;2.55;;;10.10;99.90;;;;;;4923922;28;20125;-82
2024/02/22 01:37:36;;;;;;;5.53;3.42;;;10.10;99.90;;;;;;4964719;28;20145;-82
2024/02/22 01:40:04;;;;;;;4.90;3.42;;;10.10;99.90;;;;;;4966174;28;20443;-81
2024/02/22 01:42:31;;;;;;;5.25;3.72;;;10.10;99.90;;;;;;4957556;28;20105;-82
2024/02/22 01:45:02;;;;;;;5.15;3.70;;;10.10;99.90;;;;;;4931534;28;20070;-80
2024/02/22 01:47:30;;;;;;;6.03;4.45;;;10.10;99.90;;;;;;4935590;28;20129;-81
2024/02/22 01:49:58;;;;;;;6.72;4.80;;;10.10;99.90;;;;;;4965163;28;20046;-82
2024/02/22 01:52:25;;;;;;;5.63;3.83;;;10.20;99.90;;;;;;4936730;28;20035;-81
2024/02/22 01:54:52;;;;;;;5.35;3.50;;;10.20;99.90;;;;;;4972647;28;20050;-80
2024/02/22 01:57:19;;;;;;;4.07;2.88;;;10.20;99.90;;;;;;4969734;28;20046;-81
2024/02/22 01:59:47;;;;;;;4.15;2.60;;;10.20;99.90;;;;;;4967735;28;20051;-80
2024/02/22 02:02:14;;;;;;;3.20;2.20;;;10.20;99.90;;;;;;4958090;28;20046;-80
2024/02/22 02:04:42;;;;;;;4.63;2.83;;;10.20;99.90;;;;;;4926173;28;20070;-80
2024/02/22 02:07:09;;;;;;;4.25;2.95;;;10.20;99.90;;;;;;4957202;28;20050;-80
2024/02/22 02:09:36;;;;;;;4.50;2.85;;;10.20;99.90;;;;;;4952664;28;20043;-79
2024/02/22 02:12:03;;;;;;;4.75;3.40;;;10.20;99.90;;;;;;4956745;28;20101;-80
2024/02/22 02:14:30;;;;;;;5.45;4.00;;;10.20;99.90;;;;;;4958070;28;20104;-80
2024/02/22 02:16:57;;;;;;;6.00;3.70;;;10.20;99.90;;;;;;4957871;28;20043;-76
2024/02/22 02:19:25;;;;;;;4.75;3.45;;;10.30;99.90;;;;;;4954388;28;20395;-76
2024/02/22 02:22:10;;;;;;;4.60;3.30;;;10.30;99.90;;;;;;4948570;28;20073;-76
2024/02/22 02:24:44;;;;;;;7.20;4.00;;;10.30;99.90;;;;;;4978296;28;20042;-76
2024/02/22 02:27:12;;;;;;;5.68;4.10;;;10.30;99.90;;;;;;4969911;28;20405;-76
2024/02/22 02:29:42;;;;;;;6.78;4.25;;;10.30;99.90;;;;;;4949188;28;20061;-76
2024/02/22 02:32:09;;;;;;;6.60;4.22;;;10.30;99.90;;;;;;4971453;28;20046;-76
2024/02/22 02:34:36;;;;;;;6.10;4.10;;;10.30;99.90;;;;;;4960034;28;20043;-76
2024/02/22 02:37:03;;;;;;;7.45;4.80;;;10.30;99.90;;;;;;4947568;28;20069;-76
2024/02/22 02:39:30;;;;;;;8.15;5.20;;;10.30;99.90;;;;;;4967888;28;20054;-76
2024/02/22 02:41:59;;;;;;;7.78;5.25;;;10.30;99.90;;;;;;4981400;28;20038;-76
2024/02/22 02:44:26;;;;;;;9.40;5.28;;;10.40;99.90;;;;;;4976612;28;20054;-76
2024/02/22 02:46:53;;;;;;;8.38;5.43;;;10.40;99.90;;;;;;4964718;28;20108;-75
2024/02/22 02:49:20;;;;;;;9.65;5.70;;;10.40;99.90;;;;;;4988298;28;20424;-76
2024/02/22 02:51:47;;;;;;;13.65;6.95;;;10.40;99.90;;;;;;4974053;28;20038;-76
2024/02/22 02:54:15;;;;;;;11.13;7.22;;;10.40;99.90;;;;;;4949766;28;20043;-75
2024/02/22 02:56:42;;;;;;;12.13;7.13;;;10.40;99.90;;;;;;4980436;28;20101;-76
2024/02/22 02:59:09;;;;;;;11.23;6.10;;;10.50;99.90;;;;;;4969675;28;20438;-76
2024/02/22 03:01:36;;;;;;;13.73;8.70;;;10.50;99.90;;;;;;4953487;28;20451;-76
2024/02/22 03:04:04;;;;;;;15.35;8.48;;;10.50;99.90;;;;;;4951856;28;20035;-76
2024/02/22 03:06:31;;;;;;;12.85;7.38;;;10.50;99.90;;;;;;4969587;28;20046;-76
2024/02/22 03:08:58;;;;;;;13.75;8.27;;;10.50;99.90;;;;;;4993397;28;20125;-76
2024/02/22 03:11:24;;;;;;;14.20;8.98;;;10.50;99.90;;;;;;4952658;28;20043;-76
2024/02/22 03:13:52;;;;;;;18.70;10.27;;;10.50;99.90;;;;;;4953128;28;20097;-76
2024/02/22 03:16:19;;;;;;;19.52;11.25;;;10.60;99.90;;;;;;4960313;28;20625;-76
2024/02/22 03:18:46;;;;;;;28.23;12.05;;;10.60;99.90;;;;;;4956943;28;20057;-76
2024/02/22 03:21:13;;;;;;;17.67;9.65;;;10.60;99.90;;;;;;4970940;28;20129;-76
2024/02/22 03:23:39;;;;;;;16.15;9.85;;;10.60;99.90;;;;;;4988163;28;20085;-76
2024/02/22 03:26:06;;;;;;;13.70;8.77;;;10.60;99.90;;;;;;4959310;28;20042;-76
2024/02/22 03:28:34;;;;;;;18.00;9.45;;;10.60;99.90;;;;;;4972981;28;20102;-76
2024/02/22 03:31:01;;;;;;;17.20;9.77;;;10.60;99.90;;;;;;4956209;28;20081;-76
2024/02/22 03:33:29;;;;;;;15.77;9.18;;;10.60;99.90;;;;;;4960107;28;20042;-76
2024/02/22 03:36:00;;;;;;;19.60;11.05;;;10.60;99.90;;;;;;4934789;28;20043;-76
2024/02/22 03:38:27;;;;;;;16.50;9.75;;;10.60;99.90;;;;;;4925337;28;20454;-76
2024/02/22 03:40:54;;;;;;;13.48;8.00;;;10.70;99.90;;;;;;4978003;28;20100;-76
2024/02/22 03:43:21;;;;;;;13.20;7.93;;;10.60;99.90;;;;;;4951962;28;20042;-76
2024/02/22 03:45:48;;;;;;;15.60;8.98;;;10.70;99.90;;;;;;4958902;28;20034;-76
2024/02/22 03:48:15;;;;;;;14.45;8.18;;;10.70;99.90;;;;;;4976842;28;20053;-76
2024/02/22 03:50:43;;;;;;;14.57;8.00;;;10.70;99.90;;;;;;4983039;28;20560;-75
2024/02/22 03:53:10;;;;;;;15.98;8.80;;;10.70;99.90;;;;;;4959677;28;20047;-76
2024/02/22 03:55:37;;;;;;;18.65;11.10;;;10.70;99.90;;;;;;4966145;28;20042;-76
2024/02/22 03:58:06;;;;;;;18.33;10.05;;;10.70;99.90;;;;;;4940291;28;20050;-76
2024/02/22 04:00:36;;;;;;;18.77;10.02;;;10.70;99.90;;;;;;4960510;28;20102;-76
2024/02/22 04:03:03;;;;;;;17.05;10.15;;;10.70;99.90;;;;;;4960465;28;20086;-76
2024/02/22 04:05:31;;;;;;;18.30;10.38;;;10.70;99.90;;;;;;4964343;28;20097;-76
2024/02/22 04:07:58;;;;;;;16.13;9.68;;;10.70;99.90;;;;;;4961042;28;20047;-76
2024/02/22 04:10:25;;;;;;;20.08;11.40;;;10.70;99.90;;;;;;4968452;28;20138;-76
2024/02/22 04:12:52;;;;;;;16.33;10.30;;;10.70;99.90;;;;;;4959175;28;20042;-76
2024/02/22 04:15:20;;;;;;;16.42;9.15;;;10.70;99.90;;;;;;4954302;28;20482;-76
2024/02/22 04:17:47;;;;;;;17.80;9.45;;;10.70;99.90;;;;;;4948280;28;20126;-76
2024/02/22 04:20:15;;;;;;;18.83;10.52;;;10.70;99.90;;;;;;4967700;28;20054;-76
2024/02/22 04:22:47;;;;;;;15.75;8.73;;;10.60;99.90;;;;;;4968456;28;20105;-76
2024/02/22 04:25:15;;;;;;;22.38;10.90;;;10.70;99.90;;;;;;4964883;28;20439;-76
2024/02/22 04:27:42;;;;;;;20.27;9.98;;;10.70;99.90;;;;;;4935243;28;20078;-76
2024/02/22 04:30:12;;;;;;;16.08;9.02;;;10.70;99.90;;;;;;4923051;28;20407;-76
2024/02/22 04:32:39;;;;;;;15.57;8.40;;;10.70;99.90;;;;;;4948514;28;20043;-76
2024/02/22 04:35:07;;;;;;;14.00;6.80;;;10.60;99.90;;;;;;4944443;28;20039;-76
2024/02/22 04:37:34;;;;;;;10.93;6.55;;;10.60;99.90;;;;;;4960647;28;20399;-76
2024/02/22 04:40:01;;;;;;;11.68;6.60;;;10.70;99.90;;;;;;4908012;28;20047;-76
2024/02/22 04:42:28;;;;;;;14.30;5.82;;;10.70;99.90;;;;;;4940100;28;20040;-76
2024/02/22 04:44:55;;;;;;;11.00;6.50;;;10.70;99.90;;;;;;4939410;29;20051;-76
2024/02/22 04:47:22;;;;;;;15.18;8.30;;;10.60;99.90;;;;;;4932467;28;20051;-76
2024/02/22 04:49:50;;;;;;;16.20;8.18;;;10.70;99.90;;;;;;4923562;28;20050;-76
2024/02/22 04:52:17;;;;;;;13.20;7.22;;;10.70;99.90;;;;;;4943497;28;20074;-76
2024/02/22 04:54:44;;;;;;;15.35;7.93;;;10.70;99.90;;;;;;4934946;28;20408;-76
2024/02/22 04:57:11;;;;;;;15.13;8.52;;;10.60;99.90;;;;;;4922836;28;20118;-76
2024/02/22 04:59:38;;;;;;;14.15;8.55;;;10.60;99.90;;;;;;4950014;29;20050;-76
2024/02/22 05:02:06;;;;;;;19.60;9.35;;;10.60;99.90;;;;;;4929811;29;20043;-76
2024/02/22 05:04:33;;;;;;;18.38;9.02;;;10.60;99.90;;;;;;4961597;28;20494;-76
2024/02/22 05:07:00;;;;;;;16.23;9.00;;;10.60;99.90;;;;;;4920049;29;20050;-76
2024/02/22 05:09:26;;;;;;;14.63;7.43;;;10.60;99.90;;;;;;4961344;28;20472;-76
2024/02/22 05:11:53;;;;;;;14.55;7.05;;;10.50;99.90;;;;;;4923334;29;20453;-76
2024/02/22 05:14:20;;;;;;;16.55;8.15;;;10.60;99.90;;;;;;4938562;29;20050;-76
2024/02/22 05:16:47;;;;;;;13.95;7.07;;;10.50;99.90;;;;;;4928451;28;20047;-77
2024/02/22 05:19:15;;;;;;;14.63;6.85;;;10.50;99.90;;;;;;4959559;28;20560;-76
2024/02/22 05:21:42;;;;;;;9.55;5.63;;;10.50;99.90;;;;;;4947178;28;20499;-76
2024/02/22 05:24:10;;;;;;;10.88;4.68;;;10.40;99.90;;;;;;4927981;28;20051;-75
2024/02/22 05:26:37;;;;;;;10.85;5.15;;;10.40;99.90;;;;;;4929359;28;20067;-76
2024/02/22 05:29:05;;;;;;;12.57;5.63;;;10.30;99.90;;;;;;4929223;28;20078;-76
2024/02/22 05:31:32;;;;;;;12.73;5.47;;;10.30;99.90;;;;;;4927153;29;20110;-76
2024/02/22 05:33:59;;;;;;;8.20;4.53;;;10.20;99.90;;;;;;4928912;29;20047;-75
2024/02/22 05:36:26;;;;;;;11.68;5.55;;;10.10;99.90;;;;;;4960879;28;20062;-75
2024/02/22 05:38:53;;;;;;;9.02;4.35;;;10.10;99.90;;;;;;4913931;29;20061;-75
2024/02/22 05:41:20;;;;;;;11.32;5.40;;;10.00;99.90;;;;;;4949586;28;20075;-75
2024/02/22 05:43:47;;;;;;;14.10;5.22;;;10.00;99.90;;;;;;4952242;29;20054;-75
2024/02/22 05:46:15;;;;;;;11.02;4.70;;;10.00;99.90;;;;;;4954125;28;20047;-75
2024/02/22 05:48:44;;;;;;;14.98;5.60;;;10.00;99.90;;;;;;4929157;28;20042;-75
2024/02/22 05:51:11;;;;;;;13.30;4.80;;;10.00;99.90;;;;;;4948240;28;20042;-75
2024/02/22 05:53:40;;;;;;;10.18;4.70;;;10.10;99.90;;;;;;4926875;28;20392;-75
2024/02/22 05:56:07;;;;;;;8.32;3.78;;;10.10;99.90;;;;;;4948790;28;20491;-76
2024/02/22 05:58:34;;;;;;;9.80;3.65;;;10.10;99.90;;;;;;4930257;28;20055;-76
2024/02/22 06:01:02;;;;;;;13.73;4.28;;;10.10;99.90;;;;;;4953422;28;20518;-75
2024/02/22 06:03:29;;;;;;;7.50;3.38;;;10.10;99.90;;;;;;4951577;28;20150;-75
2024/02/22 06:05:57;;;;;;;10.32;4.38;;;10.10;99.90;;;;;;4935656;28;20075;-76
2024/02/22 06:08:24;;;;;;;10.15;3.28;;;10.10;99.90;;;;;;4954518;28;20570;-76
2024/02/22 06:10:54;;;;;;;9.52;2.42;;;10.10;99.90;;;;;;4959136;28;20070;-76
2024/02/22 06:13:21;;;;;;;8.05;4.00;;;10.10;99.90;;;;;;4938586;28;20047;-76
2024/02/22 06:15:48;;;;;;;11.45;4.15;;;10.10;99.90;;;;;;4932102;28;20058;-76
2024/02/22 06:18:15;;;;;;;10.65;4.03;;;10.10;99.90;;;;;;4962432;28;20506;-76
2024/02/22 06:20:42;;;;;;;16.33;6.57;;;10.10;99.90;;;;;;4918921;28;20050;-76
2024/02/22 06:23:09;;;;;;;11.73;5.80;;;10.10;99.90;;;;;;4962331;28;20046;-76
2024/02/22 06:25:38;;;;;;;14.27;6.05;;;10.10;99.90;;;;;;4920524;28;20137;-79
2024/02/22 06:28:06;;;;;;;12.90;5.97;;;10.10;99.90;;;;;;4930303;28;20423;-79
2024/02/22 06:30:33;;;;;;;12.52;6.45;;;10.10;99.90;;;;;;4969542;28;20047;-79
2024/02/22 06:33:00;;;;;;;11.15;6.15;;;10.10;99.90;;;;;;4958255;28;20042;-80
2024/02/22 06:35:28;;;;;;;10.88;5.28;;;10.10;99.90;;;;;;4937205;28;20062;-80
2024/02/22 06:37:55;;;;;;;10.27;5.00;;;10.10;99.90;;;;;;4966199;28;20053;-79
2024/02/22 06:40:22;;;;;;;12.32;5.97;;;10.10;99.90;;;;;;4941453;28;20050;-79
2024/02/22 06:42:49;;;;;;;11.30;5.40;;;10.10;99.90;;;;;;4945375;28;20051;-79
2024/02/22 06:45:21;;;;;;;10.18;4.93;;;10.10;99.90;;;;;;4970019;28;20050;-79
2024/02/22 06:47:48;;;;;;;11.60;4.35;;;10.10;99.90;;;;;;4917316;29;20047;-79
2024/02/22 06:50:16;;;;;;;11.07;4.03;;;10.10;99.90;;;;;;4969453;28;20047;-80
2024/02/22 06:52:43;;;;;;;8.98;4.55;;;10.00;99.90;;;;;;4967946;28;20454;-76
2024/02/22 06:55:12;;;;;;;7.47;4.28;;;10.00;99.90;;;;;;4956750;28;20045;-76
2024/02/22 06:57:39;;;;;;;7.45;4.40;;;10.00;99.90;;;;;;4956206;28;20043;-76
2024/02/22 07:00:09;;;;;;;12.85;5.30;;;10.10;99.90;;;;;;4974426;28;20105;-75
2024/02/22 07:02:36;;;;;;;8.80;4.57;;;10.10;99.90;;;;;;4947616;28;20046;-76
2024/02/22 07:05:03;;;;;;;13.05;6.22;;;10.10;99.90;;;;;;4980318;28;20053;-75
2024/02/22 07:07:30;;;;;;;11.95;4.93;;;10.20;99.90;;;;;;4947807;28;20109;-76
2024/02/22 07:09:57;;;;;;;11.05;5.80;;;10.20;99.90;;;;;;4963478;28;20050;-76
2024/02/22 07:12:24;;;;;;;12.82;5.28;;;10.20;99.90;;;;;;4941892;28;20450;-76
2024/02/22 07:14:51;;;;;;;10.48;4.47;;;10.20;99.90;;;;;;4957959;28;20036;-75
2024/02/22 07:17:18;;;;;;;11.30;4.30;;;10.20;99.90;;;;;;4984253;28;20043;-75
2024/02/22 07:19:49;;;;;;;6.15;3.47;;;10.30;99.90;;;;;;4963706;28;20479;-76
2024/02/22 07:22:17;;;;;;;7.53;3.30;;;10.20;99.90;;;;;;4983821;28;20102;-76
2024/02/22 07:24:44;;;;;;;7.28;3.72;;;10.30;99.90;;;;;;4955866;28;20109;-76
2024/02/22 07:27:10;;;;;;;6.55;3.80;;;10.30;99.90;;;;;;4954773;28;20058;-76
2024/02/22 07:29:38;;;;;;;6.82;3.63;;;10.30;99.90;;;;;;4955519;28;20046;-76
2024/02/22 07:32:06;;;;;;;10.75;4.13;;;10.40;99.90;;;;;;4988006;28;20039;-76
2024/02/22 07:34:34;;;;;;;6.78;3.10;;;10.40;99.90;;;;;;4964678;28;20060;-76
2024/02/22 07:37:01;;;;;;;5.95;2.92;;;10.50;99.90;;;;;;4918170;28;20054;-76
2024/02/22 07:39:28;;;;;;;8.07;3.40;;;10.50;99.90;;;;;;4965910;28;20498;-76
2024/02/22 07:41:55;;;;;;;8.27;3.35;;;10.60;99.90;;;;;;4976001;28;20042;-76
2024/02/22 07:44:22;;;;;;;7.95;3.80;;;10.60;99.90;;;;;;4965251;28;20081;-76
2024/02/22 07:46:52;;;;;;;7.97;4.38;;;10.60;99.90;;;;;;4961167;28;20462;-76
2024/02/22 07:49:21;;;;;;;11.07;4.45;;;10.60;99.90;;;;;;4967940;28;20113;-76
2024/02/22 07:51:48;;;;;;;7.63;4.28;;;10.60;99.90;;;;;;4943615;28;20042;-76
2024/02/22 07:54:24;;;;;;;9.15;5.35;;;10.60;99.90;;;;;;4979314;28;20057;-76
2024/02/22 07:56:51;;;;;;;13.82;8.27;;;10.60;99.90;;;;;;4929530;29;20047;-76
2024/02/22 07:59:18;;;;;;;11.98;6.30;;;10.60;99.90;;;;;;4941251;28;20050;-76
2024/02/22 08:01:46;;;;;;;11.30;6.78;;;10.60;99.90;;;;;;4943239;29;20074;-76
2024/02/22 08:04:13;;;;;;;10.68;5.88;;;10.60;99.90;;;;;;4944748;28;20926;-76
2024/02/22 08:06:40;;;;;;;10.95;6.45;;;10.60;99.90;;;;;;4953527;28;21029;-76
2024/02/22 08:09:07;;;;;;;11.40;6.93;;;10.60;99.90;;;;;;4971637;28;20134;-77
2024/02/22 08:11:37;;;;;;;11.77;6.18;;;10.60;99.90;;;;;;4968680;28;20081;-76
2024/02/22 08:14:05;;;;;;;11.60;7.20;;;10.60;99.90;;;;;;4931770;28;20092;-76
2024/02/22 08:16:32;;;;;;;11.82;6.78;;;10.60;99.90;;;;;;4960055;28;20039;-77
2024/02/22 08:19:00;;;;;;;10.13;6.78;;;10.60;99.90;;;;;;4978165;28;20049;-77
2024/02/22 08:21:27;;;;;;;11.75;7.07;;;10.60;99.90;;;;;;4943332;28;20046;-76
2024/02/22 08:23:55;;;;;;;14.00;8.23;;;10.60;99.90;;;;;;4954500;28;20050;-77
2024/02/22 08:26:22;;;;;;;12.15;7.50;;;10.60;99.90;;;;;;4953017;28;20047;-77
2024/02/22 08:28:50;;;;;;;13.57;6.97;;;10.60;99.90;;;;;;4971159;28;20050;-77
2024/02/22 08:31:17;;;;;;;10.57;5.97;;;10.60;99.90;;;;;;4940179;29;20563;-77
2024/02/22 08:33:47;;;;;;;10.45;7.70;;;10.60;99.90;;;;;;4942478;28;20059;-77
2024/02/22 08:36:15;;;;;;;13.15;7.20;;;10.50;99.90;;;;;;4952885;28;20070;-76
2024/02/22 08:38:42;;;;;;;9.20;5.68;;;10.50;99.90;;;;;;4958822;28;20093;-77
2024/02/22 08:41:09;;;;;;;9.50;5.57;;;10.50;99.90;;;;;;4953119;28;20047;-77
2024/02/22 08:43:36;;;;;;;7.53;4.82;;;10.50;99.90;;;;;;4946378;28;20051;-77
2024/02/22 08:46:04;;;;;;;6.68;4.13;;;10.50;99.90;;;;;;4975895;28;20105;-77
2024/02/22 08:48:32;;;;;;;6.47;4.10;;;10.60;99.90;;;;;;4951479;28;20046;-76
2024/02/22 08:50:59;;;;;;;6.60;3.85;;;10.60;99.90;;;;;;4958858;28;20039;-76
2024/02/22 08:53:26;;;;;;;5.80;3.45;;;10.70;99.90;;;;;;4946155;28;20487;-77
2024/02/22 08:55:53;;;;;;;8.48;4.38;;;10.70;99.90;;;;;;4955218;28;20071;-77
2024/02/22 08:58:21;;;;;;;8.48;4.63;;;10.80;99.90;;;;;;4954069;28;20063;-77
2024/02/22 09:00:48;;;;;;;7.95;3.83;;;10.80;99.90;;;;;;4937540;28;20089;-77
2024/02/22 09:03:15;;;;;;;6.78;3.60;;;10.90;99.90;;;;;;4962373;28;20509;-77
2024/02/22 09:05:43;;;;;;;5.53;3.00;;;10.90;99.90;;;;;;4975056;28;20057;-77
2024/02/22 09:08:10;;;;;;;5.35;2.78;;;11.00;99.90;;;;;;4951898;28;20082;-77
2024/02/22 09:10:38;;;;;;;5.38;2.85;;;11.10;99.90;;;;;;4946680;28;20043;-77
2024/02/22 09:13:05;;;;;;;6.40;3.00;;;11.10;99.90;;;;;;4950864;28;20102;-77
2024/02/22 09:15:33;;;;;;;6.07;3.10;;;11.20;99.90;;;;;;4958214;28;20047;-77
2024/02/22 09:18:00;;;;;;;5.90;2.58;;;11.20;99.90;;;;;;4952306;29;20106;-77
2024/02/22 09:20:27;;;;;;;5.07;2.33;;;11.20;99.90;;;;;;4924823;28;20089;-77
2024/02/22 09:22:55;;;;;;;5.22;2.58;;;11.30;99.90;;;;;;4924675;28;20061;-77
2024/02/22 09:25:23;;;;;;;4.15;2.13;;;11.30;99.90;;;;;;4953702;28;20117;-78
2024/02/22 09:27:50;;;;;;;6.43;2.60;;;11.40;99.90;;;;;;4957813;28;20096;-77
2024/02/22 09:30:17;;;;;;;5.78;2.80;;;11.40;99.90;;;;;;4956083;28;20106;-76
2024/02/22 09:32:44;;;;;;;4.35;2.42;;;11.50;99.90;;;;;;4931165;29;20043;-77
2024/02/22 09:35:12;;;;;;;4.28;2.22;;;11.60;99.90;;;;;;4939405;28;20519;-76
2024/02/22 09:37:39;;;;;;;4.32;2.58;;;11.70;99.90;;;;;;4916670;28;20047;-77
2024/02/22 09:40:06;;;;;;;6.70;3.70;;;11.80;99.90;;;;;;4937960;28;20053;-78
2024/02/22 09:42:35;;;;;;;6.25;3.38;;;11.90;99.90;;;;;;4939392;28;20049;-78
2024/02/22 09:45:05;;;;;;;5.25;2.65;;;11.90;99.90;;;;;;4949061;28;20047;-76
2024/02/22 09:47:32;;;;;;;5.10;2.58;;;12.00;99.90;;;;;;4957342;28;20038;-76
2024/02/22 09:50:00;;;;;;;5.40;2.28;;;11.90;99.90;;;;;;4922673;29;20130;-77
2024/02/22 09:52:27;;;;;;;5.13;2.90;;;11.90;99.90;;;;;;4986726;28;20043;-78
2024/02/22 09:54:54;;;;;;;6.85;3.20;;;11.90;99.90;;;;;;4930292;29;20047;-78
2024/02/22 09:57:21;;;;;;;6.57;3.20;;;11.90;99.90;;;;;;4950587;28;20051;-78
2024/02/22 09:59:50;;;;;;;8.13;4.50;;;11.90;99.90;;;;;;4947652;28;20446;-78
2024/02/22 10:02:18;;;;;;;7.88;4.18;;;11.90;99.90;;;;;;4969087;28;20042;-77
2024/02/22 10:04:50;;;;;;;6.43;3.17;;;11.90;99.90;;;;;;4968249;28;20590;-77
2024/02/22 10:07:22;;;;;;;4.30;2.67;;;11.80;99.90;;;;;;4941214;28;20043;-77
2024/02/22 10:09:50;;;;;;;5.97;2.58;;;11.80;99.90;;;;;;4952254;28;20049;-77
2024/02/22 10:12:25;;;;;;;4.00;2.33;;;11.90;99.90;;;;;;4929053;28;20050;-77
2024/02/22 10:14:54;;;;;;;3.38;1.85;;;11.90;99.90;;;;;;4953354;28;20031;-77
2024/02/22 10:17:28;;;;;;;3.05;1.73;;;11.80;99.90;;;;;;4941240;28;20076;-77
2024/02/22 10:20:00;;;;;;;5.70;2.75;;;11.80;99.90;;;;;;4945880;28;20057;-77
2024/02/22 10:22:28;;;;;;;3.40;1.85;;;11.80;99.90;;;;;;4985772;28;20042;-81
2024/02/22 10:25:10;;;;;;;2.85;1.42;;;11.80;99.90;;;;;;4977020;28;20085;-81
2024/02/22 10:27:38;;;;;;;2.37;1.43;;;11.90;99.90;;;;;;4956235;28;20081;-81
2024/02/22 10:30:10;;;;;;;2.22;1.10;;;11.80;99.90;;;;;;4940818;28;20141;-83
2024/02/22 10:32:42;;;;;;;1.80;0.95;;;11.80;99.90;;;;;;4982544;28;20125;-81
2024/02/22 10:35:11;;;;;;;2.22;1.10;;;11.70;99.90;;;;;;4959352;28;20113;-81
2024/02/22 10:37:39;;;;;;;2.13;1.27;;;11.80;99.90;;;;;;4981390;28;20043;-81
2024/02/22 10:40:09;;;;;;;1.75;1.05;;;11.70;99.90;;;;;;4979761;28;20046;-82
2024/02/22 10:42:40;;;;;;;1.85;1.00;;;11.70;99.90;;;;;;4953848;28;20043;-82
2024/02/22 10:45:08;;;;;;;2.15;1.33;;;11.60;99.90;;;;;;4980312;28;20053;-81
2024/02/22 10:47:37;;;;;;;1.98;1.20;;;11.60;99.90;;;;;;4957754;28;20483;-81
2024/02/22 10:50:05;;;;;;;1.58;0.93;;;11.50;99.90;;;;;;4962361;28;20162;-81
2024/02/22 10:52:41;;;;;;;2.28;1.17;;;11.50;99.90;;;;;;4938962;29;20065;-83
2024/02/22 10:55:15;;;;;;;1.77;1.17;;;11.50;99.90;;;;;;4974066;28;20117;-81
2024/02/22 10:57:47;;;;;;;2.10;1.00;;;11.60;99.90;;;;;;4941451;29;20082;-82
2024/02/22 11:00:15;;;;;;;2.53;0.90;;;11.50;99.90;;;;;;4967205;28;20078;-82
2024/02/22 11:02:46;;;;;;;1.42;0.77;;;11.50;99.90;;;;;;4950855;28;20054;-82
2024/02/22 11:05:14;;;;;;;2.25;1.00;;;11.60;99.90;;;;;;4967451;28;20114;-82
2024/02/22 11:07:51;;;;;;;1.67;1.00;;;11.60;99.90;;;;;;4973699;28;20057;-82
2024/02/22 11:10:19;;;;;;;1.75;0.90;;;11.60;99.90;;;;;;4969506;28;20039;-83
2024/02/22 11:12:47;;;;;;;1.48;0.93;;;11.70;99.90;;;;;;4955900;29;20043;-82
2024/02/22 11:15:15;;;;;;;1.75;1.00;;;11.70;99.90;;;;;;4952240;28;20061;-82
2024/02/22 11:17:55;;;;;;;1.92;0.90;;;11.80;99.90;;;;;;4946974;28;20043;-82
2024/02/22 11:20:36;;;;;;;1.40;0.70;;;11.80;99.90;;;;;;4967344;28;20096;-83
2024/02/22 11:23:13;;;;;;;3.80;0.80;;;11.80;99.90;;;;;;4955538;28;20047;-82
2024/02/22 11:25:41;;;;;;;1.52;0.90;;;11.80;99.90;;;;;;4977216;28;20043;-83
2024/02/22 11:28:09;;;;;;;1.38;0.82;;;11.80;99.90;;;;;;4989347;28;20045;-90
2024/02/22 11:30:37;;;;;;;1.50;0.80;;;11.90;99.90;;;;;;4951875;28;20063;-91
2024/02/22 11:33:05;;;;;;;1.65;0.73;;;11.90;99.90;;;;;;4949961;28;20043;-91
2024/02/22 11:35:32;;;;;;;1.38;0.77;;;12.00;99.90;;;;;;4955862;28;20403;-91
2024/02/22 11:38:02;;;;;;;1.13;0.60;;;12.00;99.90;;;;;;4945131;28;20137;-91
2024/02/22 11:40:34;;;;;;;0.90;0.50;;;12.00;99.90;;;;;;4944934;28;20154;-89
2024/02/22 11:43:03;;;;;;;1.65;0.90;;;12.00;99.90;;;;;;4945961;28;20042;-89
2024/02/22 11:45:32;;;;;;;0.90;0.50;;;12.00;99.90;;;;;;4945653;28;20043;-90
2024/02/22 11:47:59;;;;;;;0.85;0.35;;;12.00;99.90;;;;;;4963678;28;20046;-88
2024/02/22 11:50:30;;;;;;;0.75;0.50;;;12.00;99.90;;;;;;4929419;28;20039;-88
2024/02/22 11:52:58;;;;;;;0.40;0.30;;;12.00;99.90;;;;;;4979718;28;20047;-89
2024/02/22 11:55:27;;;;;;;0.82;0.43;;;11.90;99.90;;;;;;4954367;28;20129;-89
2024/02/22 11:57:55;;;;;;;0.50;0.30;;;11.90;99.90;;;;;;4979488;28;20104;-90
2024/02/22 12:00:22;;;;;;;0.80;0.40;;;11.90;99.90;;;;;;4964136;28;20108;-90
2024/02/22 12:02:49;;;;;;;0.90;0.40;;;11.90;99.90;;;;;;4940137;28;20106;-90
2024/02/22 12:05:17;;;;;;;0.40;0.40;;;11.90;99.90;;;;;;4961989;28;20046;-89
2024/02/22 12:07:46;;;;;;;1.25;0.60;;;11.90;99.90;;;;;;4963262;28;20039;-86
2024/02/22 12:10:13;;;;;;;0.85;0.50;;;11.90;99.90;;;;;;4967339;28;20043;-83
2024/02/22 12:12:40;;;;;;;1.30;0.73;;;11.90;99.90;;;;;;4956892;28;20113;-83
2024/02/22 12:15:09;;;;;;;1.05;0.68;;;11.90;99.90;;;;;;4933828;29;20054;-84
2024/02/22 12:17:42;;;;;;;1.00;0.55;;;11.80;99.90;;;;;;4958061;29;20051;-90
2024/02/22 12:20:12;;;;;;;1.17;0.70;;;11.80;99.90;;;;;;4941450;29;20062;-83
2024/02/22 12:22:46;;;;;;;1.15;0.60;;;11.90;99.90;;;;;;4964850;28;20051;-81
2024/02/22 12:25:14;;;;;;;1.38;0.50;;;11.80;99.90;;;;;;4974945;28;20047;-83
2024/02/22 12:27:41;;;;;;;1.70;0.70;;;11.80;99.90;;;;;;4955938;28;20039;-83
2024/02/22 12:30:09;;;;;;;1.25;0.50;;;11.90;99.90;;;;;;4955366;29;20063;-83
2024/02/22 12:32:47;;;;;;;0.90;0.60;;;11.90;99.90;;;;;;4930125;29;20049;-83
2024/02/22 12:35:15;;;;;;;1.55;0.60;;;11.90;99.90;;;;;;4943290;28;20105;-83
2024/02/22 12:37:42;;;;;;;2.55;0.85;;;11.90;99.90;;;;;;4933480;29;20122;-82
2024/02/22 12:40:11;;;;;;;1.85;0.82;;;11.90;99.90;;;;;;4955130;28;20132;-84
2024/02/22 12:42:38;;;;;;;1.10;0.60;;;11.90;99.90;;;;;;4953652;28;20129;-83
2024/02/22 12:45:06;;;;;;;1.70;0.70;;;11.90;99.90;;;;;;4927844;28;20058;-83
2024/02/22 12:47:33;;;;;;;2.42;0.70;;;11.90;99.90;;;;;;4939517;28;20050;-83